createdAt,value
2019-06-10T00:00:51.844Z,39.67
2019-06-10T00:03:27.709Z,42.60
2019-06-10T00:06:04.111Z,45.43
2019-06-10T00:08:41.456Z,48.80
2019-06-10T00:11:17.118Z,46.88
2019-06-10T00:13:54.698Z,46.88
2019-06-10T00:16:31.759Z,46.42
2019-06-10T00:19:12.711Z,46.35
2019-06-10T00:21:50.965Z,46.08
2019-06-10T00:24:31.451Z,46.08
2019-06-10T00:27:09.349Z,45.75
2019-06-10T00:29:48.157Z,41.35
2019-06-10T00:32:27.139Z,43.55
2019-06-10T00:35:04.617Z,41.88
2019-06-10T00:37:43.635Z,39.63
2019-06-10T00:40:21.505Z,37.42
2019-06-10T00:42:56.248Z,36.85
2019-06-10T00:45:36.644Z,33.83
2019-06-10T00:48:25.301Z,34.95
2019-06-10T00:50:54.851Z,33.00
2019-06-10T00:53:32.804Z,35.58
2019-06-10T00:56:13.826Z,36.13
2019-06-10T00:58:47.951Z,34.25
2019-06-10T01:01:25.662Z,31.52
2019-06-10T01:04:07.364Z,32.58
2019-06-10T01:06:48.226Z,32.60
2019-06-10T01:09:23.840Z,34.05
2019-06-10T01:12:01.176Z,33.05
2019-06-10T01:14:41.023Z,32.75
2019-06-10T01:17:25.806Z,32.63
2019-06-10T01:20:01.808Z,33.78
2019-06-10T01:22:37.951Z,35.30
2019-06-10T01:25:17.748Z,34.03
2019-06-10T01:27:53.382Z,34.95
2019-06-10T01:30:31.329Z,34.92
2019-06-10T01:33:10.594Z,35.85
2019-06-10T01:35:46.608Z,36.50
2019-06-10T01:38:22.247Z,36.23
2019-06-10T01:41:01.891Z,37.30
2019-06-10T01:43:40.795Z,35.52
2019-06-10T01:46:22.595Z,35.03
2019-06-10T01:49:02.651Z,37.55
2019-06-10T01:51:43.563Z,36.35
2019-06-10T01:54:21.620Z,36.38
2019-06-10T01:56:58.141Z,36.53
2019-06-10T01:59:37.183Z,36.73
2019-06-10T02:02:17.323Z,35.40
2019-06-10T02:04:53.879Z,36.50
2019-06-10T02:07:31.794Z,38.70
2019-06-10T02:10:26.826Z,38.63
2019-06-10T02:13:01.958Z,41.40
2019-06-10T02:15:37.991Z,37.00
2019-06-10T02:18:18.207Z,38.50
2019-06-10T02:20:56.034Z,41.28
2019-06-10T02:23:32.748Z,43.83
2019-06-10T02:26:08.094Z,41.88
2019-06-10T02:28:44.908Z,45.20
2019-06-10T02:31:30.192Z,46.53
2019-06-10T02:34:13.211Z,40.95
2019-06-10T02:36:48.879Z,43.75
2019-06-10T02:39:32.275Z,41.35
2019-06-10T02:42:08.339Z,50.60
2019-06-10T02:44:54.125Z,47.80
2019-06-10T02:47:38.466Z,41.68
2019-06-10T02:50:20.976Z,41.05
2019-06-10T02:52:54.121Z,42.83
2019-06-10T02:55:34.223Z,43.75
2019-06-10T02:58:15.209Z,41.35
2019-06-10T03:00:49.427Z,41.77
2019-06-10T03:03:39.426Z,40.60
2019-06-10T03:06:08.991Z,41.28
2019-06-10T03:08:45.663Z,41.15
2019-06-10T03:11:27.928Z,42.08
2019-06-10T03:14:07.795Z,40.38
2019-06-10T03:16:45.453Z,41.30
2019-06-10T03:19:41.837Z,46.10
2019-06-10T03:22:13.084Z,43.28
2019-06-10T03:24:53.628Z,50.85
2019-06-10T03:27:32.712Z,45.28
2019-06-10T03:30:20.526Z,48.87
2019-06-10T03:35:52.300Z,46.05
2019-06-10T03:38:38.658Z,47.35
2019-06-10T03:41:16.523Z,46.25
2019-06-10T03:43:56.832Z,44.73
2019-06-10T03:46:43.209Z,45.30
2019-06-10T03:49:21.874Z,45.55
2019-06-10T03:52:04.227Z,47.58
2019-06-10T03:54:43.463Z,44.13
2019-06-10T03:57:26.829Z,44.55
2019-06-10T04:00:03.483Z,46.90
2019-06-10T04:02:43.245Z,45.95
2019-06-10T04:05:23.856Z,52.27
2019-06-10T04:08:19.392Z,48.98
2019-06-10T04:11:06.515Z,48.87
2019-06-10T04:16:26.682Z,42.98
2019-06-10T04:19:03.114Z,41.87
2019-06-10T04:21:43.457Z,41.28
2019-06-10T04:24:25.135Z,44.95
2019-06-10T04:27:05.385Z,47.35
2019-06-10T04:29:45.804Z,47.43
2019-06-10T04:32:25.798Z,46.30
2019-06-10T04:35:04.563Z,46.90
2019-06-10T04:37:51.914Z,46.75
2019-06-10T04:40:29.355Z,47.93
2019-06-10T04:43:05.849Z,44.88
2019-06-10T04:45:55.150Z,44.05
2019-06-10T04:48:36.128Z,39.15
2019-06-10T04:51:13.780Z,38.80
2019-06-10T04:53:52.698Z,36.75
2019-06-10T04:59:27.304Z,38.75
2019-06-10T05:02:12.824Z,38.58
2019-06-10T05:04:54.436Z,41.73
2019-06-10T05:07:37.059Z,39.80
2019-06-10T05:10:14.112Z,39.25
2019-06-10T05:12:52.556Z,39.85
2019-06-10T05:21:24.562Z,40.85
2019-06-10T05:24:02.916Z,40.45
2019-06-10T05:26:42.452Z,41.70
2019-06-10T05:29:16.607Z,41.15
2019-06-10T05:31:56.634Z,40.45
2019-06-10T05:34:34.645Z,38.42
2019-06-10T05:37:14.183Z,38.17
2019-06-10T05:42:43.503Z,36.63
2019-06-10T05:45:25.600Z,35.40
2019-06-10T05:48:02.836Z,38.50
2019-06-10T05:50:39.754Z,36.75
2019-06-10T05:53:15.564Z,35.17
2019-06-10T05:55:52.948Z,34.25
2019-06-10T05:58:35.976Z,35.30
2019-06-10T06:01:13.238Z,35.75
2019-06-10T06:03:52.656Z,36.93
2019-06-10T06:06:33.444Z,36.35
2019-06-10T06:09:14.863Z,51.73
2019-06-10T06:14:45.914Z,56.45
2019-06-10T06:17:23.460Z,58.48
2019-06-10T06:20:13.113Z,62.23
2019-06-10T06:22:52.119Z,63.58
2019-06-10T06:25:29.871Z,60.52
2019-06-10T06:28:22.946Z,65.87
2019-06-10T06:30:59.657Z,62.38
2019-06-10T06:33:37.740Z,54.18
2019-06-10T06:36:22.681Z,51.70
2019-06-10T06:39:02.300Z,51.63
2019-06-10T06:41:39.141Z,52.83
2019-06-10T06:44:19.488Z,52.60
2019-06-10T06:47:13.193Z,49.90
2019-06-10T06:49:55.525Z,48.87
2019-06-10T06:53:00.937Z,47.70
2019-06-10T06:55:13.120Z,47.40
2019-06-10T06:57:52.910Z,45.38
2019-06-10T07:00:52.753Z,38.40
2019-06-10T07:03:22.866Z,30.60
2019-06-10T07:06:09.814Z,27.05
2019-06-10T07:09:01.504Z,27.05
2019-06-10T07:11:37.060Z,27.42
2019-06-10T07:14:12.938Z,31.95
2019-06-10T07:16:58.724Z,33.15
2019-06-10T07:19:45.754Z,31.82
2019-06-10T07:25:14.271Z,41.37
2019-06-10T07:27:56.423Z,53.17
2019-06-10T07:30:39.454Z,44.83
2019-06-10T07:33:18.147Z,44.03
2019-06-10T07:36:03.867Z,43.30
2019-06-10T07:38:49.258Z,46.00
2019-06-10T07:41:34.387Z,45.92
2019-06-10T07:44:12.477Z,48.30
2019-06-10T07:47:05.206Z,53.87
2019-06-10T07:49:45.659Z,52.65
2019-06-10T07:52:23.495Z,61.48
2019-06-10T07:55:02.363Z,55.65
2019-06-10T07:57:43.898Z,57.45
2019-06-10T08:00:22.865Z,55.52
2019-06-10T08:03:02.274Z,49.48
2019-06-10T08:05:46.680Z,51.30
2019-06-10T08:08:26.608Z,51.83
2019-06-10T08:11:06.657Z,64.72
2019-06-10T08:13:46.168Z,70.52
2019-06-10T08:16:23.364Z,75.87
2019-06-10T08:19:22.021Z,74.12
2019-06-10T08:21:37.663Z,73.42
2019-06-10T08:24:13.823Z,81.35
2019-06-10T08:26:49.835Z,97.37
2019-06-10T08:29:28.823Z,103.25
2019-06-10T08:32:06.605Z,108.87
2019-06-10T08:34:56.801Z,118.02
2019-06-10T08:37:33.214Z,111.75
2019-06-10T08:40:15.348Z,128.40
2019-06-10T08:42:53.748Z,130.22
2019-06-10T08:45:38.906Z,126.18
2019-06-10T08:48:18.382Z,119.57
2019-06-10T08:50:55.193Z,130.82
2019-06-10T08:53:32.999Z,134.25
2019-06-10T08:56:32.690Z,129.82
2019-06-10T08:58:59.957Z,129.10
2019-06-10T09:01:30.373Z,126.45
2019-06-10T09:04:19.575Z,130.03
2019-06-10T09:07:23.222Z,128.60
2019-06-10T09:10:02.896Z,132.40
2019-06-10T09:12:45.584Z,136.18
2019-06-10T09:15:24.629Z,131.90
2019-06-10T09:18:04.717Z,121.15
2019-06-10T09:20:48.780Z,116.00
2019-06-10T09:23:23.170Z,119.28
2019-06-10T09:26:03.650Z,109.45
2019-06-10T09:28:41.502Z,109.72
2019-06-10T09:31:19.396Z,103.92
2019-06-10T09:33:57.007Z,101.70
2019-06-10T09:36:33.546Z,96.15
2019-06-10T09:39:19.135Z,92.80
2019-06-10T09:42:06.139Z,87.70
2019-06-10T09:44:45.885Z,95.75
2019-06-10T09:47:22.523Z,87.95
2019-06-10T09:49:59.598Z,89.72
2019-06-10T09:52:36.112Z,85.65
2019-06-10T09:55:23.265Z,88.45
2019-06-10T09:58:09.046Z,87.35
2019-06-10T10:03:32.732Z,85.38
2019-06-10T10:06:14.965Z,81.45
2019-06-10T10:08:52.661Z,80.40
2019-06-10T10:11:28.460Z,82.62
2019-06-10T10:14:09.609Z,80.65
2019-06-10T10:16:52.150Z,84.00
2019-06-10T10:19:24.271Z,80.72
2019-06-10T10:22:03.265Z,81.15
2019-06-10T10:24:39.455Z,77.90
2019-06-10T10:27:17.279Z,79.45
2019-06-10T10:29:56.970Z,79.53
2019-06-10T10:32:33.428Z,76.62
2019-06-10T10:35:09.675Z,76.57
2019-06-10T10:37:46.392Z,73.42
2019-06-10T10:40:26.970Z,78.57
2019-06-10T10:43:22.561Z,86.15
2019-06-10T10:45:43.442Z,82.22
2019-06-10T10:48:17.831Z,81.02
2019-06-10T10:50:56.027Z,85.57
2019-06-10T10:53:32.818Z,81.20
2019-06-10T10:56:12.586Z,79.30
2019-06-10T10:58:55.528Z,80.35
2019-06-10T11:01:28.222Z,78.15
2019-06-10T11:04:08.286Z,82.33
2019-06-10T11:06:44.457Z,77.22
2019-06-10T11:09:22.361Z,149.02
2019-06-10T11:11:59.790Z,124.05
2019-06-10T11:14:39.517Z,91.32
2019-06-10T11:17:19.871Z,85.38
2019-06-10T11:19:57.783Z,80.15
2019-06-10T11:22:33.789Z,78.02
2019-06-10T11:25:09.750Z,83.00
2019-06-10T11:27:50.125Z,79.30
2019-06-10T11:30:25.896Z,79.50
2019-06-10T11:33:10.742Z,82.97
2019-06-10T11:35:48.951Z,86.92
2019-06-10T11:38:26.316Z,83.97
2019-06-10T11:41:04.925Z,82.85
2019-06-10T11:43:57.749Z,90.07
2019-06-10T11:46:33.204Z,81.05
2019-06-10T11:49:09.598Z,84.22
2019-06-10T11:51:52.631Z,83.85
2019-06-10T11:54:29.613Z,85.55
2019-06-10T11:57:06.780Z,82.08
2019-06-10T11:59:48.000Z,78.87
2019-06-10T12:02:27.349Z,79.10
2019-06-10T12:05:13.236Z,85.15
2019-06-10T12:07:56.372Z,84.05
2019-06-10T12:10:33.084Z,80.83
2019-06-10T12:13:13.396Z,80.92
2019-06-10T12:16:48.851Z,83.22
2019-06-10T12:18:35.150Z,81.45
2019-06-10T12:21:14.860Z,79.80
2019-06-10T12:23:56.982Z,83.37
2019-06-10T12:26:35.739Z,80.70
2019-06-10T12:29:22.547Z,79.77
2019-06-10T12:32:02.827Z,77.30
2019-06-10T12:34:51.279Z,76.50
2019-06-10T12:37:36.867Z,73.45
2019-06-10T12:40:17.884Z,73.85
2019-06-10T12:45:53.966Z,74.30
2019-06-10T12:48:33.192Z,71.67
2019-06-10T12:51:09.529Z,68.65
2019-06-10T12:53:48.211Z,69.17
2019-06-10T12:56:23.861Z,63.92
2019-06-10T12:59:07.675Z,64.47
2019-06-10T13:01:40.495Z,69.35
2019-06-10T13:04:18.497Z,70.15
2019-06-10T13:07:00.150Z,67.82
2019-06-10T13:09:44.872Z,72.05
2019-06-10T13:12:22.949Z,64.03
2019-06-10T13:14:59.977Z,66.45
2019-06-10T13:17:37.772Z,61.18
2019-06-10T13:20:32.850Z,58.83
2019-06-10T13:23:20.241Z,58.78
2019-06-10T13:25:57.934Z,60.85
2019-06-10T13:28:35.832Z,58.92
2019-06-10T13:31:15.359Z,55.10
2019-06-10T13:33:52.914Z,57.45
2019-06-10T13:36:37.463Z,58.10
2019-06-10T13:39:22.136Z,53.98
2019-06-10T13:42:06.857Z,54.20
2019-06-10T13:47:37.363Z,51.75
2019-06-10T13:50:14.768Z,54.50
2019-06-10T13:55:47.155Z,57.80
2019-06-10T13:58:25.060Z,57.67
2019-06-10T14:04:02.898Z,62.10
2019-06-10T14:06:47.027Z,57.67
2019-06-10T14:12:18.826Z,58.63
2019-06-10T14:15:04.126Z,57.90
2019-06-10T14:17:52.751Z,52.53
2019-06-10T14:20:29.583Z,54.67
2019-06-10T14:23:13.604Z,54.15
2019-06-10T14:28:44.275Z,51.48
2019-06-10T14:31:38.583Z,49.67
2019-06-10T14:34:10.623Z,48.70
2019-06-10T14:36:46.874Z,48.30
2019-06-10T14:39:32.914Z,47.03
2019-06-10T14:42:27.419Z,41.37
2019-06-10T14:45:07.201Z,39.63
2019-06-10T14:47:47.886Z,37.13
2019-06-10T14:50:32.485Z,36.70
2019-06-10T14:53:11.772Z,34.13
2019-06-10T14:55:56.647Z,34.45
2019-06-10T14:58:42.464Z,34.48
2019-06-10T15:07:42.174Z,33.23
2019-06-10T15:10:25.914Z,33.75
2019-06-10T15:13:09.670Z,33.15
2019-06-10T15:15:52.954Z,34.00
2019-06-10T15:18:29.822Z,33.13
2019-06-10T15:21:08.999Z,38.35
2019-06-10T15:24:05.079Z,37.23
2019-06-10T15:29:37.765Z,37.95
2019-06-10T15:32:32.886Z,36.83
2019-06-10T15:38:04.104Z,37.85
2019-06-10T15:40:43.907Z,38.35
2019-06-10T15:43:25.050Z,34.83
2019-06-10T15:49:02.412Z,29.67
2019-06-10T15:51:39.881Z,30.08
2019-06-10T15:54:25.849Z,29.52
2019-06-10T16:00:11.312Z,28.87
2019-06-10T16:02:52.535Z,27.30
2019-06-10T16:05:46.711Z,29.42
2019-06-10T16:08:27.067Z,29.10
2019-06-10T16:11:04.422Z,27.25
2019-06-10T16:13:47.673Z,28.05
2019-06-10T16:16:32.504Z,27.13
2019-06-10T16:19:28.358Z,27.32
2019-06-10T16:22:12.792Z,26.25
2019-06-10T16:24:58.539Z,26.15
2019-06-10T16:27:48.587Z,25.77
2019-06-10T16:36:14.858Z,26.80
2019-06-10T16:38:54.148Z,26.60
2019-06-10T16:41:33.272Z,25.62
2019-06-10T16:47:25.045Z,26.23
2019-06-10T16:49:56.434Z,27.65
2019-06-10T16:52:34.272Z,27.87
2019-06-10T16:55:12.751Z,25.82
2019-06-10T16:57:59.286Z,26.45
2019-06-10T17:00:34.745Z,26.07
2019-06-10T17:03:12.770Z,25.95
2019-06-10T17:05:53.101Z,27.22
2019-06-10T17:11:38.264Z,26.12
2019-06-10T17:14:16.226Z,26.73
2019-06-10T17:16:56.428Z,26.02
2019-06-10T17:19:33.401Z,26.93
2019-06-10T17:24:57.084Z,25.82
2019-06-10T17:27:33.034Z,28.50
2019-06-10T17:30:19.492Z,27.40
2019-06-10T17:33:05.439Z,27.30
2019-06-10T17:35:46.297Z,28.42
2019-06-10T17:38:28.880Z,28.07
2019-06-10T17:44:09.595Z,28.57
2019-06-10T17:46:49.116Z,27.23
2019-06-10T17:49:35.040Z,25.97
2019-06-10T17:55:03.923Z,24.35
2019-06-10T17:57:43.088Z,26.13
2019-06-10T18:00:20.207Z,24.80
2019-06-10T18:02:57.013Z,23.52
2019-06-10T18:05:37.171Z,25.77
2019-06-10T18:08:16.592Z,25.05
2019-06-10T18:10:57.812Z,23.70
2019-06-10T18:13:35.876Z,24.63
2019-06-10T18:16:13.079Z,23.77
2019-06-10T18:21:24.545Z,21.55
2019-06-10T18:24:07.238Z,22.50
2019-06-10T18:26:42.394Z,23.67
2019-06-10T18:29:17.728Z,21.85
2019-06-10T18:31:53.719Z,22.13
2019-06-10T18:34:29.828Z,22.05
2019-06-10T18:37:06.185Z,22.37
2019-06-10T18:39:43.050Z,21.68
2019-06-10T18:42:18.422Z,20.95
2019-06-10T18:44:58.706Z,20.68
2019-06-10T18:47:37.242Z,20.43
2019-06-10T18:50:13.661Z,19.50
2019-06-10T18:52:53.352Z,18.87
2019-06-10T18:55:37.197Z,19.48
2019-06-10T18:58:11.073Z,21.07
2019-06-10T19:00:59.823Z,21.23
2019-06-10T19:03:28.407Z,21.48
2019-06-10T19:06:08.260Z,20.43
2019-06-10T19:08:45.903Z,19.75
2019-06-10T19:11:21.608Z,21.30
2019-06-10T19:13:59.833Z,20.20
2019-06-10T19:19:12.510Z,20.15
2019-06-10T19:22:01.796Z,21.48
2019-06-10T19:24:24.928Z,21.52
2019-06-10T19:27:05.159Z,21.03
2019-06-10T19:29:45.488Z,21.20
2019-06-10T19:32:15.318Z,21.42
2019-06-10T19:34:52.465Z,22.30
2019-06-10T19:37:28.100Z,22.85
2019-06-10T19:40:05.731Z,22.50
2019-06-10T19:42:44.437Z,22.50
2019-06-10T19:45:18.583Z,21.93
2019-06-10T19:47:56.614Z,22.73
2019-06-10T19:50:34.024Z,23.07
2019-06-10T19:53:07.996Z,21.27
2019-06-10T19:55:48.109Z,22.90
2019-06-10T19:58:23.960Z,22.67
2019-06-10T20:00:59.732Z,21.55
2019-06-10T20:03:37.689Z,21.48
2019-06-10T20:06:13.853Z,21.65
2019-06-10T20:08:52.282Z,21.60
2019-06-10T20:11:27.931Z,22.67
2019-06-10T20:14:03.470Z,21.93
2019-06-10T20:16:39.816Z,21.50
2019-06-10T20:19:16.598Z,22.00
2019-06-10T20:21:54.165Z,24.12
2019-06-10T20:24:29.900Z,24.18
2019-06-10T20:27:25.949Z,23.95
2019-06-10T20:30:10.045Z,22.45
2019-06-10T20:35:15.397Z,22.27
2019-06-10T20:37:53.555Z,22.22
2019-06-10T20:40:27.671Z,21.57
2019-06-10T20:43:03.449Z,23.30
2019-06-10T20:45:39.539Z,23.40
2019-06-10T20:48:17.057Z,23.38
2019-06-10T20:50:53.350Z,23.18
2019-06-10T20:56:04.378Z,22.37
2019-06-10T20:58:46.439Z,23.62
2019-06-10T21:01:24.748Z,25.27
2019-06-10T21:04:03.332Z,26.07
2019-06-10T21:06:41.275Z,25.60
2019-06-10T21:09:18.258Z,23.35
2019-06-10T21:11:54.380Z,23.73
2019-06-10T21:14:34.651Z,23.77
2019-06-10T21:17:12.199Z,21.60
2019-06-10T21:19:47.900Z,20.35
2019-06-10T21:24:57.868Z,19.95
2019-06-10T21:27:35.360Z,18.85
2019-06-10T21:30:11.637Z,20.17
2019-06-10T21:32:49.928Z,21.52
2019-06-10T21:35:25.351Z,21.15
2019-06-10T21:38:01.219Z,20.68
2019-06-10T21:40:38.509Z,20.62
2019-06-10T21:43:14.248Z,22.35
2019-06-10T21:45:57.430Z,22.37
2019-06-10T21:48:32.360Z,23.12
2019-06-10T21:53:42.856Z,29.50
2019-06-10T21:56:21.865Z,27.47
2019-06-10T21:58:56.962Z,24.50
2019-06-10T22:01:34.106Z,24.75
2019-06-10T22:04:13.337Z,28.27
2019-06-10T22:06:49.611Z,27.05
2019-06-10T22:09:24.706Z,24.65
2019-06-10T22:12:02.694Z,24.67
2019-06-10T22:14:38.149Z,23.92
2019-06-10T22:19:50.577Z,26.52
2019-06-10T22:22:26.953Z,24.70
2019-06-10T22:25:03.068Z,22.50
2019-06-10T22:27:38.870Z,26.93
2019-06-10T22:30:15.481Z,26.37
2019-06-10T22:32:54.932Z,25.15
2019-06-10T22:35:35.118Z,38.13
2019-06-10T22:38:13.070Z,33.10
2019-06-10T22:40:53.333Z,31.80
2019-06-10T22:43:28.930Z,34.92
2019-06-10T22:48:42.350Z,48.78
2019-06-10T22:51:22.657Z,44.45
2019-06-10T22:53:59.917Z,46.20
2019-06-10T22:56:34.451Z,46.23
2019-06-10T22:59:10.042Z,47.17
2019-06-10T23:01:47.266Z,46.28
2019-06-10T23:04:22.839Z,45.90
2019-06-10T23:07:03.116Z,50.10
2019-06-10T23:09:38.897Z,50.85
2019-06-10T23:12:16.142Z,47.27
2019-06-10T23:14:54.563Z,47.40
2019-06-10T23:17:31.970Z,45.12
2019-06-10T23:22:44.324Z,42.20
2019-06-10T23:25:21.924Z,42.75
2019-06-10T23:28:00.972Z,42.83
2019-06-10T23:30:45.152Z,41.13
2019-06-10T23:33:22.921Z,40.35
2019-06-10T23:35:58.702Z,41.98
2019-06-10T23:41:08.941Z,37.63
2019-06-10T23:43:46.186Z,44.75
2019-06-10T23:46:22.904Z,32.25
2019-06-10T23:48:59.513Z,31.93
2019-06-10T23:54:12.496Z,33.02
2019-06-10T23:56:52.773Z,35.83
2019-06-10T23:59:33.275Z,32.90
